Cairngorm, United Kingdom
Current Conditions -  °F | °C
As of 1:50 PM on Monday 24 Nov 2014 (Local Time) from EGPE Reporting Station
Few Clouds Few Clouds  
Wind Chill: 43°   Ceiling: Unl
Heat Index: 48°   Visibility: 6mi
Dew Point: 43°   Wind: 12mph
Humidity: 82%   Direction: 240°WSW
Pressure: 30.09"   Gusts: NA
Location:  57.12°N, 3.64°W
Report Text: EGPE 241350Z 24010KT 9999 FEW032 09/06 Q1019
Loading
Personal Weather Stations






























Interactive Weather Map New forecast layout! Learn more

10-Day Weather Forecast

Advertisements
Track Severe Weather on mobile